createdAt,value
2023-04-11T00:02:13.937Z,20.20
2023-04-11T00:05:01.538Z,24.50
2023-04-11T00:07:48.588Z,22.02
2023-04-11T00:10:35.730Z,23.77
2023-04-11T00:13:24.139Z,22.50
2023-04-11T00:16:11.700Z,23.20
2023-04-11T00:18:58.808Z,22.90
2023-04-11T00:21:46.522Z,20.95
2023-04-11T00:24:33.639Z,23.25
2023-04-11T00:27:21.884Z,21.00
2023-04-11T00:30:09.547Z,22.75
2023-04-11T00:32:56.636Z,20.83
2023-04-11T00:35:44.485Z,22.77
2023-04-11T00:38:32.693Z,21.25
2023-04-11T00:41:19.814Z,19.27
2023-04-11T00:44:07.297Z,22.48
2023-04-11T00:46:54.413Z,21.95
2023-04-11T00:49:41.877Z,21.02
2023-04-11T00:52:29.182Z,26.33
2023-04-11T00:55:16.885Z,25.75
2023-04-11T00:58:04.260Z,20.13
2023-04-11T01:00:51.750Z,21.63
2023-04-11T01:03:39.687Z,20.23
2023-04-11T01:06:27.710Z,20.60
2023-04-11T01:09:14.754Z,19.38
2023-04-11T01:12:03.302Z,20.48
2023-04-11T01:14:50.525Z,22.08
2023-04-11T01:17:37.808Z,23.88
2023-04-11T01:20:26.527Z,21.48
2023-04-11T01:23:14.872Z,24.10
2023-04-11T01:26:01.959Z,22.52
2023-04-11T01:28:49.073Z,23.38
2023-04-11T01:31:36.435Z,19.92
2023-04-11T01:34:28.469Z,21.90
2023-04-11T01:37:16.245Z,21.00
2023-04-11T01:40:03.728Z,22.90
2023-04-11T01:42:52.189Z,21.83
2023-04-11T01:45:40.155Z,23.00
2023-04-11T01:48:28.268Z,26.40
2023-04-11T01:51:15.575Z,39.45
2023-04-11T01:54:02.630Z,31.08
2023-04-11T01:56:50.037Z,27.60
2023-04-11T01:59:37.074Z,27.90
2023-04-11T02:02:26.164Z,29.38
2023-04-11T02:05:13.421Z,27.95
2023-04-11T02:08:00.651Z,24.20
2023-04-11T02:10:47.718Z,23.15
2023-04-11T02:13:35.500Z,20.88
2023-04-11T02:16:25.979Z,20.58
2023-04-11T02:19:13.127Z,21.02
2023-04-11T02:22:00.281Z,24.27
2023-04-11T02:24:47.691Z,23.27
2023-04-11T02:27:34.914Z,23.08
2023-04-11T02:30:22.051Z,23.35
2023-04-11T02:33:09.117Z,21.05
2023-04-11T02:36:01.164Z,24.17
2023-04-11T02:38:48.242Z,22.33
2023-04-11T02:41:38.993Z,22.95
2023-04-11T02:44:26.491Z,21.25
2023-04-11T02:47:13.593Z,23.80
2023-04-11T02:50:00.692Z,22.02
2023-04-11T02:52:49.479Z,22.98
2023-04-11T02:55:36.844Z,21.70
2023-04-11T02:58:26.172Z,21.67
2023-04-11T03:01:21.742Z,23.57
2023-04-11T03:04:08.966Z,23.30
2023-04-11T03:06:56.754Z,26.70
2023-04-11T03:09:43.837Z,22.33
2023-04-11T03:12:30.872Z,26.40
2023-04-11T03:15:17.985Z,26.15
2023-04-11T03:18:05.126Z,21.15
2023-04-11T03:20:52.620Z,21.92
2023-04-11T03:23:39.841Z,24.23
2023-04-11T03:26:30.034Z,24.05
2023-04-11T03:32:04.218Z,24.60
2023-04-11T03:34:51.450Z,23.20
2023-04-11T03:37:38.585Z,23.67
2023-04-11T03:40:25.737Z,20.77
2023-04-11T03:43:12.898Z,22.77
2023-04-11T03:46:00.174Z,24.52
2023-04-11T03:48:47.506Z,22.52
2023-04-11T03:51:34.682Z,21.52
2023-04-11T03:54:21.787Z,21.63
2023-04-11T03:57:09.371Z,21.60
2023-04-11T03:59:56.613Z,23.15
2023-04-11T04:02:44.026Z,24.67
2023-04-11T04:05:31.229Z,23.48
2023-04-11T04:08:18.281Z,25.02
2023-04-11T04:11:05.792Z,26.90
2023-04-11T04:13:52.905Z,22.70
2023-04-11T04:16:40.211Z,28.35
2023-04-11T04:19:27.319Z,22.95
2023-04-11T04:22:17.940Z,23.00
2023-04-11T04:25:05.497Z,26.38
2023-04-11T04:27:54.310Z,26.80
2023-04-11T04:30:41.456Z,26.33
2023-04-11T04:33:28.601Z,27.45
2023-04-11T04:36:18.007Z,25.80
2023-04-11T04:39:07.901Z,27.92
2023-04-11T04:42:01.623Z,24.38
2023-04-11T04:44:49.362Z,23.98
2023-04-11T04:47:44.398Z,24.65
2023-04-11T04:50:31.656Z,27.65
2023-04-11T04:53:18.764Z,27.25
2023-04-11T04:56:09.464Z,26.63
2023-04-11T04:58:57.536Z,25.45
2023-04-11T05:01:44.762Z,24.35
2023-04-11T05:04:34.482Z,26.65
2023-04-11T05:07:21.806Z,28.08
2023-04-11T05:10:09.287Z,26.98
2023-04-11T05:12:56.635Z,26.45
2023-04-11T05:15:51.238Z,25.17
2023-04-11T05:18:38.453Z,24.77
2023-04-11T05:21:26.660Z,23.73
2023-04-11T05:24:13.810Z,23.52
2023-04-11T05:27:00.876Z,27.17
2023-04-11T05:29:47.962Z,25.55
2023-04-11T05:32:35.012Z,26.10
2023-04-11T05:35:22.500Z,27.05
2023-04-11T05:38:10.045Z,26.42
2023-04-11T05:40:57.113Z,25.35
2023-04-11T05:43:44.158Z,23.80
2023-04-11T05:46:35.839Z,25.42
2023-04-11T05:49:22.974Z,27.48
2023-04-11T05:52:10.128Z,24.60
2023-04-11T05:54:57.408Z,23.70
2023-04-11T05:57:44.475Z,22.75
2023-04-11T06:00:32.446Z,24.95
2023-04-11T06:03:19.741Z,22.55
2023-04-11T06:06:07.296Z,22.73
2023-04-11T06:08:54.662Z,26.80
2023-04-11T06:11:41.706Z,23.25
2023-04-11T06:14:29.915Z,24.15
2023-04-11T06:17:17.156Z,24.80
2023-04-11T06:20:06.424Z,24.83
2023-04-11T06:22:53.574Z,28.43
2023-04-11T06:25:40.809Z,26.38
2023-04-11T06:28:27.939Z,27.27
2023-04-11T06:31:15.010Z,30.33
2023-04-11T06:34:02.292Z,35.35
2023-04-11T06:36:50.109Z,48.15
2023-04-11T06:39:37.285Z,38.47
2023-04-11T06:42:24.367Z,43.38
2023-04-11T06:45:12.164Z,96.75
2023-04-11T06:47:59.325Z,70.55
2023-04-11T06:50:48.316Z,57.58
2023-04-11T06:53:35.392Z,57.08
2023-04-11T06:56:22.588Z,35.50
2023-04-11T06:59:09.677Z,64.18
2023-04-11T07:01:56.922Z,66.95
2023-04-11T07:04:44.195Z,32.80
2023-04-11T07:07:31.533Z,29.30
2023-04-11T07:10:18.609Z,21.38
2023-04-11T07:13:05.967Z,20.88
2023-04-11T07:15:53.119Z,23.48
2023-04-11T07:18:40.460Z,18.27
2023-04-11T07:21:28.615Z,22.10
2023-04-11T07:24:18.614Z,23.45
2023-04-11T07:29:54.072Z,18.30
2023-04-11T07:32:41.411Z,23.98
2023-04-11T07:35:28.977Z,19.77
2023-04-11T07:38:29.672Z,20.15
2023-04-11T07:41:16.874Z,20.88
2023-04-11T07:44:06.816Z,18.30
2023-04-11T07:46:53.866Z,20.08
2023-04-11T07:49:40.973Z,19.75
2023-04-11T07:52:28.088Z,16.55
2023-04-11T07:55:15.198Z,20.98
2023-04-11T07:58:02.288Z,19.58
2023-04-11T08:00:50.803Z,19.35
2023-04-11T08:03:38.016Z,19.95
2023-04-11T08:06:26.731Z,20.63
2023-04-11T08:09:13.835Z,21.48
2023-04-11T08:12:01.806Z,19.65
2023-04-11T08:14:48.870Z,16.88
2023-04-11T08:17:38.708Z,20.45
2023-04-11T08:20:26.307Z,19.88
2023-04-11T08:23:13.605Z,17.85
2023-04-11T08:26:01.564Z,17.52
2023-04-11T08:28:48.732Z,17.58
2023-04-11T08:31:35.757Z,18.25
2023-04-11T08:34:22.972Z,18.25
2023-04-11T08:37:10.219Z,16.90
2023-04-11T08:39:57.731Z,17.70
2023-04-11T08:42:45.797Z,17.48
2023-04-11T08:45:32.911Z,18.77
2023-04-11T08:48:22.181Z,16.00
2023-04-11T08:51:09.249Z,18.95
2023-04-11T08:53:59.689Z,18.48
2023-04-11T08:56:47.761Z,17.17
2023-04-11T08:59:34.804Z,18.58
2023-04-11T09:02:22.331Z,15.38
2023-04-11T09:05:25.299Z,16.23
2023-04-11T09:08:14.320Z,18.50
2023-04-11T09:11:01.728Z,15.37
2023-04-11T09:14:05.809Z,15.63
2023-04-11T09:16:58.412Z,20.30
2023-04-11T09:19:48.290Z,16.70
2023-04-11T09:22:36.698Z,14.52
2023-04-11T09:25:24.195Z,13.23
2023-04-11T09:28:11.388Z,18.42
2023-04-11T09:30:58.524Z,16.73
2023-04-11T09:33:55.842Z,18.20
2023-04-11T09:36:44.301Z,15.98
2023-04-11T09:39:32.801Z,14.73
2023-04-11T09:42:25.897Z,15.18
2023-04-11T09:45:23.225Z,18.83
2023-04-11T09:48:10.791Z,17.30
2023-04-11T09:50:59.122Z,14.50
2023-04-11T09:53:46.810Z,15.02
2023-04-11T09:56:35.096Z,12.85
2023-04-11T09:59:23.076Z,13.68
2023-04-11T10:02:10.258Z,15.82
2023-04-11T10:05:00.372Z,12.77
2023-04-11T10:10:36.628Z,12.93
2023-04-11T10:13:45.604Z,13.27
2023-04-11T10:16:34.463Z,14.40
2023-04-11T10:19:21.813Z,13.87
2023-04-11T10:22:09.326Z,11.98
2023-04-11T10:25:15.073Z,13.27
2023-04-11T10:28:04.084Z,15.27
2023-04-11T10:31:02.263Z,18.57
2023-04-11T10:34:12.864Z,14.27
2023-04-11T10:37:07.851Z,14.52
2023-04-11T10:39:54.927Z,15.13
2023-04-11T10:42:46.942Z,14.00
2023-04-11T10:45:39.851Z,13.65
2023-04-11T10:48:26.998Z,14.25
2023-04-11T10:51:24.973Z,15.80
2023-04-11T10:54:25.893Z,18.33
2023-04-11T10:57:13.346Z,13.48
2023-04-11T11:00:02.079Z,15.02
2023-04-11T11:02:50.168Z,15.05
2023-04-11T11:05:37.416Z,12.75
2023-04-11T11:08:30.745Z,11.93
2023-04-11T11:11:19.475Z,12.73
2023-04-11T11:14:06.639Z,11.80
2023-04-11T11:16:53.722Z,11.82
2023-04-11T11:19:45.278Z,10.48
2023-04-11T11:22:32.310Z,12.10
2023-04-11T11:25:19.481Z,8.65
2023-04-11T11:28:08.416Z,10.35
2023-04-11T11:30:57.519Z,10.18
2023-04-11T11:33:44.646Z,10.80
2023-04-11T11:36:34.510Z,8.52
2023-04-11T11:42:28.855Z,10.52
2023-04-11T11:45:17.773Z,9.82
2023-04-11T11:48:05.031Z,9.73
2023-04-11T11:50:58.585Z,11.02
2023-04-11T11:54:01.950Z,11.18
2023-04-11T11:56:55.227Z,9.65
2023-04-11T11:59:42.330Z,10.10
2023-04-11T12:02:29.520Z,9.25
2023-04-11T12:05:17.422Z,11.32
2023-04-11T12:08:07.496Z,9.35
2023-04-11T12:10:54.634Z,11.63
2023-04-11T12:13:41.860Z,10.70
2023-04-11T12:16:29.088Z,10.23
2023-04-11T12:19:16.394Z,10.32
2023-04-11T12:22:03.511Z,9.90
2023-04-11T12:25:11.301Z,10.35
2023-04-11T12:27:58.573Z,10.75
2023-04-11T12:30:45.713Z,12.25
2023-04-11T12:33:32.847Z,12.77
2023-04-11T12:36:20.057Z,12.30
2023-04-11T12:39:07.393Z,10.63
2023-04-11T12:41:54.410Z,11.73
2023-04-11T12:44:41.505Z,10.40
2023-04-11T12:47:28.544Z,10.48
2023-04-11T12:50:15.698Z,9.00
2023-04-11T12:53:02.764Z,9.15
2023-04-11T12:55:49.865Z,11.13
2023-04-11T12:58:36.973Z,7.78
2023-04-11T13:01:24.499Z,7.78
2023-04-11T13:04:11.834Z,8.32
2023-04-11T13:07:02.175Z,8.20
2023-04-11T13:09:49.749Z,8.43
2023-04-11T13:12:39.962Z,9.55
2023-04-11T13:15:27.270Z,8.85
2023-04-11T13:18:14.619Z,9.38
2023-04-11T13:21:01.694Z,10.05
2023-04-11T13:23:48.779Z,9.20
2023-04-11T13:26:35.996Z,7.78
2023-04-11T13:29:23.132Z,8.63
2023-04-11T13:32:10.168Z,10.70
2023-04-11T13:34:57.258Z,11.23
2023-04-11T13:37:44.568Z,10.82
2023-04-11T13:40:31.688Z,9.38
2023-04-11T13:43:18.712Z,8.60
2023-04-11T13:46:06.128Z,7.13
2023-04-11T13:48:53.327Z,8.02
2023-04-11T13:51:41.438Z,7.10
2023-04-11T13:54:28.561Z,8.27
2023-04-11T13:57:15.846Z,5.97
2023-04-11T14:00:11.943Z,5.95
2023-04-11T14:02:59.265Z,5.30
2023-04-11T14:05:46.370Z,4.72
2023-04-11T14:08:33.427Z,7.57
2023-04-11T14:11:21.199Z,5.18
2023-04-11T14:14:08.369Z,4.60
2023-04-11T14:16:55.680Z,14.70
2023-04-11T14:19:43.011Z,4.20
2023-04-11T14:22:30.939Z,5.50
2023-04-11T14:25:18.563Z,4.47
2023-04-11T14:28:05.796Z,4.53
2023-04-11T14:30:52.928Z,3.70
2023-04-11T14:33:40.143Z,3.65
2023-04-11T14:36:28.114Z,2.40
2023-04-11T14:39:15.562Z,3.10
2023-04-11T14:42:02.927Z,1.73
2023-04-11T14:44:50.542Z,4.13
2023-04-11T14:47:37.940Z,2.67
2023-04-11T14:50:27.024Z,1.48
2023-04-11T14:53:14.891Z,1.33
2023-04-11T14:56:05.776Z,3.17
2023-04-11T14:58:53.341Z,1.42
2023-04-11T15:01:40.527Z,3.63
2023-04-11T15:04:27.894Z,1.70
2023-04-11T15:07:14.982Z,0.98
2023-04-11T15:10:02.584Z,1.83
2023-04-11T15:12:50.251Z,2.42
2023-04-11T15:15:37.422Z,1.92
2023-04-11T15:18:28.031Z,2.88
2023-04-11T15:21:15.954Z,2.60
2023-04-11T15:24:06.617Z,2.20
2023-04-11T15:26:53.672Z,3.33
2023-04-11T15:29:40.795Z,1.52
2023-04-11T15:32:29.091Z,2.58
2023-04-11T15:35:16.267Z,3.50
2023-04-11T15:38:03.637Z,2.17
2023-04-11T15:40:52.539Z,20.98
2023-04-11T15:43:40.498Z,5.20
2023-04-11T15:46:27.854Z,3.28
2023-04-11T15:49:15.191Z,3.10
2023-04-11T15:52:02.242Z,2.10
2023-04-11T15:54:49.396Z,1.30
2023-04-11T15:57:36.453Z,2.47
2023-04-11T16:00:23.858Z,2.28
2023-04-11T16:03:11.471Z,1.33
2023-04-11T16:05:59.989Z,2.42
2023-04-11T16:08:47.039Z,2.38
2023-04-11T16:11:34.108Z,2.90
2023-04-11T16:14:21.754Z,3.65
2023-04-11T16:17:08.879Z,4.22
2023-04-11T16:19:56.233Z,1.92
2023-04-11T16:22:43.308Z,3.40
2023-04-11T16:25:31.042Z,4.50
2023-04-11T16:28:18.119Z,4.25
2023-04-11T16:31:05.336Z,6.97
2023-04-11T16:33:53.666Z,3.30
2023-04-11T16:36:40.960Z,4.25
2023-04-11T16:39:28.318Z,5.03
2023-04-11T16:42:16.136Z,5.43
2023-04-11T16:45:03.436Z,4.35
2023-04-11T16:47:50.725Z,5.20
2023-04-11T16:50:38.445Z,6.63
2023-04-11T16:53:25.790Z,5.40
2023-04-11T16:56:13.086Z,6.40
2023-04-11T16:59:00.173Z,4.45
2023-04-11T17:01:47.393Z,3.47
2023-04-11T17:04:34.879Z,1.60
2023-04-11T17:07:22.125Z,3.20
2023-04-11T17:10:10.258Z,5.57
2023-04-11T17:12:58.538Z,4.35
2023-04-11T17:15:46.496Z,4.70
2023-04-11T17:18:39.075Z,3.47
2023-04-11T17:21:26.576Z,7.43
2023-04-11T17:24:13.700Z,3.67
2023-04-11T17:27:00.847Z,2.35
2023-04-11T17:29:48.078Z,3.80
2023-04-11T17:32:38.246Z,1.02
2023-04-11T17:35:26.280Z,2.15
2023-04-11T17:38:13.426Z,0.90
2023-04-11T17:41:13.651Z,2.50
2023-04-11T17:44:01.371Z,1.52
2023-04-11T17:46:49.536Z,1.80
2023-04-11T17:49:36.839Z,4.40
2023-04-11T17:52:24.023Z,2.03
2023-04-11T17:55:13.230Z,2.13
2023-04-11T17:58:00.458Z,2.15
2023-04-11T18:00:56.222Z,7.68
2023-04-11T18:03:44.396Z,6.72
2023-04-11T18:06:34.373Z,6.07
2023-04-11T18:09:22.020Z,4.95
2023-04-11T18:12:09.149Z,5.18
2023-04-11T18:14:57.285Z,3.00
2023-04-11T18:17:47.675Z,2.42
2023-04-11T18:20:34.840Z,2.53
2023-04-11T18:23:22.337Z,3.17
2023-04-11T18:26:09.544Z,1.50
2023-04-11T18:28:56.802Z,1.60
2023-04-11T18:31:44.022Z,0.88
2023-04-11T18:34:31.417Z,1.65
2023-04-11T18:37:19.373Z,5.07
2023-04-11T18:40:14.603Z,1.42
2023-04-11T18:43:02.144Z,5.05
2023-04-11T18:45:50.645Z,2.33
2023-04-11T18:48:38.446Z,0.82
2023-04-11T18:51:25.809Z,1.30
2023-04-11T18:54:13.079Z,5.85
2023-04-11T18:57:04.150Z,2.03
2023-04-11T18:59:55.374Z,3.08
2023-04-11T19:02:55.317Z,3.60
2023-04-11T19:05:44.929Z,3.25
2023-04-11T19:08:33.147Z,3.95
2023-04-11T19:11:22.278Z,2.88
2023-04-11T19:14:14.531Z,5.57
2023-04-11T19:17:02.095Z,3.55
2023-04-11T19:19:49.271Z,6.95
2023-04-11T19:22:40.196Z,8.38
2023-04-11T19:25:28.027Z,3.83
2023-04-11T19:28:16.103Z,6.85
2023-04-11T19:31:06.912Z,6.18
2023-04-11T19:33:54.622Z,2.92
2023-04-11T19:36:43.014Z,4.45
2023-04-11T19:39:37.537Z,5.25
2023-04-11T19:42:25.863Z,6.32
2023-04-11T19:45:13.592Z,7.75
2023-04-11T19:48:04.480Z,3.65
2023-04-11T19:50:52.858Z,4.22
2023-04-11T19:53:41.601Z,4.53
2023-04-11T19:56:28.727Z,3.47
2023-04-11T19:59:19.252Z,3.78
2023-04-11T20:02:09.687Z,3.55
2023-04-11T20:04:57.474Z,4.97
2023-04-11T20:07:48.946Z,3.45
2023-04-11T20:10:38.054Z,3.72
2023-04-11T20:13:26.156Z,5.20
2023-04-11T20:16:13.516Z,4.00
2023-04-11T20:19:02.014Z,5.28
2023-04-11T20:21:54.194Z,4.38
2023-04-11T20:24:44.218Z,6.93
2023-04-11T20:27:33.621Z,4.82
2023-04-11T20:30:21.068Z,5.88
2023-04-11T20:33:08.187Z,4.75
2023-04-11T20:35:59.296Z,6.28
2023-04-11T20:38:47.657Z,4.97
2023-04-11T20:41:40.743Z,5.25
2023-04-11T20:44:28.076Z,4.55
2023-04-11T20:47:15.278Z,3.10
2023-04-11T20:50:05.259Z,3.35
2023-04-11T20:52:53.162Z,3.63
2023-04-11T20:55:41.455Z,6.03
2023-04-11T20:58:28.753Z,3.42
2023-04-11T21:01:16.255Z,3.95
2023-04-11T21:04:04.138Z,4.57
2023-04-11T21:06:51.783Z,4.18
2023-04-11T21:09:38.890Z,4.63
2023-04-11T21:12:26.245Z,4.07
2023-04-11T21:15:13.387Z,6.35
2023-04-11T21:18:00.593Z,4.90
2023-04-11T21:20:47.667Z,3.95
2023-04-11T21:23:35.076Z,3.58
2023-04-11T21:26:23.481Z,4.28
2023-04-11T21:29:12.008Z,6.38
2023-04-11T21:31:59.183Z,4.00
2023-04-11T21:34:46.296Z,6.63
2023-04-11T21:37:33.461Z,5.65
2023-04-11T21:40:20.564Z,6.40
2023-04-11T21:43:07.600Z,4.70
2023-04-11T21:45:54.653Z,6.20
2023-04-11T21:48:43.211Z,3.15
2023-04-11T21:51:30.934Z,8.18
2023-04-11T21:54:17.968Z,4.65
2023-04-11T21:57:05.074Z,5.88
2023-04-11T21:59:52.133Z,6.00
2023-04-11T22:02:40.189Z,5.43
2023-04-11T22:05:27.636Z,6.00
2023-04-11T22:08:19.917Z,4.57
2023-04-11T22:11:10.439Z,5.78
2023-04-11T22:13:58.788Z,4.07
2023-04-11T22:16:52.095Z,4.63
2023-04-11T22:19:42.322Z,4.53
2023-04-11T22:25:22.501Z,6.15
2023-04-11T22:31:06.104Z,5.53
2023-04-11T22:33:53.154Z,8.38
2023-04-11T22:36:40.250Z,6.32
2023-04-11T22:39:27.324Z,6.18
2023-04-11T22:42:14.385Z,6.75
2023-04-11T22:45:01.547Z,6.95
2023-04-11T22:47:54.151Z,7.65
2023-04-11T22:50:41.847Z,9.15
2023-04-11T22:53:29.510Z,6.47
2023-04-11T22:56:16.628Z,7.65
2023-04-11T22:59:03.697Z,7.28
2023-04-11T23:19:52.236Z,7.18
2023-04-11T23:22:42.278Z,7.45
2023-04-11T23:25:29.659Z,6.45
2023-04-11T23:28:16.778Z,6.53
2023-04-11T23:31:04.054Z,7.15
2023-04-11T23:33:51.225Z,7.20
2023-04-11T23:36:38.864Z,7.57
2023-04-11T23:39:26.541Z,6.45
2023-04-11T23:42:13.560Z,7.32
2023-04-11T23:45:00.670Z,8.65
2023-04-11T23:47:48.450Z,8.65
2023-04-11T23:50:35.514Z,6.05
2023-04-11T23:53:22.866Z,6.70
2023-04-11T23:56:10.072Z,9.82
2023-04-11T23:58:57.244Z,7.57
